createdAt,value
2018-07-10T00:00:01.688Z,99.90
2018-07-10T00:02:41.352Z,99.90
2018-07-10T00:07:25.641Z,99.90
2018-07-10T00:10:07.837Z,99.90
2018-07-10T00:12:36.500Z,99.90
2018-07-10T00:15:04.981Z,99.90
2018-07-10T00:17:33.637Z,99.90
2018-07-10T00:22:30.388Z,99.90
2018-07-10T00:24:58.872Z,99.90
2018-07-10T00:29:56.021Z,99.90
2018-07-10T00:32:24.476Z,99.90
2018-07-10T00:34:52.992Z,99.90
2018-07-10T00:39:49.745Z,99.90
2018-07-10T00:44:46.549Z,99.90
2018-07-10T00:47:15.316Z,99.90
2018-07-10T00:49:43.992Z,99.90
2018-07-10T00:52:15.294Z,99.90
2018-07-10T00:54:43.757Z,99.90
2018-07-10T00:57:12.357Z,99.90
2018-07-10T00:59:40.914Z,99.90
2018-07-10T01:02:09.565Z,99.90
2018-07-10T01:04:38.215Z,99.90
2018-07-10T01:07:06.765Z,99.90
2018-07-10T01:09:35.191Z,99.90
2018-07-10T01:12:03.682Z,99.90
2018-07-10T01:14:32.234Z,99.90
2018-07-10T01:17:00.709Z,99.90
2018-07-10T01:19:29.245Z,99.90
2018-07-10T01:21:57.786Z,99.90
2018-07-10T01:24:26.534Z,99.90
2018-07-10T01:26:55.097Z,99.90
2018-07-10T01:29:28.794Z,99.90
2018-07-10T01:34:25.610Z,99.90
2018-07-10T01:36:55.209Z,99.90
2018-07-10T01:39:23.709Z,99.90
2018-07-10T01:41:52.351Z,99.90
2018-07-10T01:44:20.869Z,99.90
2018-07-10T01:46:49.316Z,99.90
2018-07-10T01:49:17.814Z,99.90
2018-07-10T01:51:46.354Z,99.90
2018-07-10T01:54:14.925Z,99.90
2018-07-10T01:56:43.506Z,99.90
2018-07-10T02:01:40.261Z,99.90
2018-07-10T02:04:09.225Z,99.90
2018-07-10T02:06:38.245Z,99.90
2018-07-10T02:11:34.820Z,99.90
2018-07-10T02:14:03.709Z,99.90
2018-07-10T02:16:32.089Z,99.90
2018-07-10T02:19:00.607Z,99.90
2018-07-10T02:21:29.413Z,99.90
2018-07-10T02:23:57.937Z,99.90
2018-07-10T02:26:27.570Z,99.90
2018-07-10T02:28:56.809Z,99.90
2018-07-10T02:31:25.338Z,99.90
2018-07-10T02:33:54.397Z,99.90
2018-07-10T02:36:24.094Z,99.90
2018-07-10T02:38:56.292Z,99.90
2018-07-10T02:46:24.774Z,99.90
2018-07-10T02:48:54.286Z,99.90
2018-07-10T02:51:23.002Z,99.90
2018-07-10T02:53:51.813Z,99.90
2018-07-10T02:56:21.385Z,99.90
2018-07-10T03:01:19.312Z,99.90
2018-07-10T03:03:49.097Z,99.90
2018-07-10T03:06:17.788Z,99.90
2018-07-10T03:08:47.311Z,99.90
2018-07-10T03:11:15.846Z,99.90
2018-07-10T03:13:44.434Z,99.90
2018-07-10T03:18:41.115Z,99.90
2018-07-10T03:21:10.083Z,99.90
2018-07-10T03:26:07.047Z,99.90
2018-07-10T03:28:35.587Z,99.90
2018-07-10T03:31:04.142Z,99.90
2018-07-10T03:33:32.995Z,99.90
2018-07-10T03:36:01.628Z,99.90
2018-07-10T03:38:30.350Z,99.90
2018-07-10T03:40:58.865Z,99.90
2018-07-10T03:43:28.114Z,99.90
2018-07-10T03:45:57.310Z,99.90
2018-07-10T03:48:26.416Z,99.90
2018-07-10T03:50:55.309Z,99.90
2018-07-10T03:53:24.584Z,99.90
2018-07-10T03:55:53.218Z,99.90
2018-07-10T03:58:21.816Z,99.90
2018-07-10T04:00:50.717Z,99.90
2018-07-10T04:03:21.745Z,99.90
2018-07-10T04:05:51.304Z,99.90
2018-07-10T04:08:19.888Z,99.90
2018-07-10T04:10:48.434Z,99.90
2018-07-10T04:13:23.572Z,99.90
2018-07-10T04:15:57.758Z,99.90
2018-07-10T04:21:07.817Z,99.90
2018-07-10T04:26:19.426Z,99.90
2018-07-10T04:29:03.388Z,99.90
2018-07-10T04:31:42.219Z,99.90
2018-07-10T04:34:10.825Z,99.90
2018-07-10T04:36:39.364Z,99.90
2018-07-10T04:39:07.893Z,99.90
2018-07-10T04:41:37.790Z,99.90
2018-07-10T04:44:12.158Z,99.90
2018-07-10T04:46:45.354Z,99.90
2018-07-10T04:49:24.301Z,99.90
2018-07-10T04:52:00.500Z,99.90
2018-07-10T04:54:43.001Z,99.90
2018-07-10T04:57:16.170Z,99.90
2018-07-10T04:59:45.848Z,99.90
2018-07-10T05:02:15.353Z,99.90
2018-07-10T05:04:43.957Z,99.90
2018-07-10T05:07:12.504Z,99.90
2018-07-10T05:09:42.489Z,99.90
2018-07-10T05:12:11.190Z,99.90
2018-07-10T05:14:43.133Z,99.90
2018-07-10T05:17:12.606Z,99.90
2018-07-10T05:19:41.480Z,99.90
2018-07-10T05:22:10.402Z,99.90
2018-07-10T05:24:39.324Z,99.90
2018-07-10T05:27:07.957Z,99.90
2018-07-10T05:29:36.589Z,99.90
2018-07-10T05:32:05.177Z,99.90
2018-07-10T05:34:37.308Z,99.90
2018-07-10T05:37:05.983Z,99.90
2018-07-10T05:39:36.707Z,99.90
2018-07-10T05:42:05.257Z,99.90
2018-07-10T05:44:34.077Z,99.90
2018-07-10T05:47:03.324Z,99.90
2018-07-10T05:49:39.781Z,99.90
2018-07-10T05:52:08.671Z,99.90
2018-07-10T05:54:38.449Z,99.90
2018-07-10T05:59:35.997Z,99.90
2018-07-10T06:02:04.691Z,99.90
2018-07-10T06:04:33.429Z,99.90
2018-07-10T06:07:03.297Z,99.90
2018-07-10T06:09:32.278Z,99.90
2018-07-10T06:12:01.609Z,99.90
2018-07-10T06:14:30.493Z,99.90
2018-07-10T06:16:59.285Z,99.90
2018-07-10T06:21:56.007Z,99.90
2018-07-10T06:24:27.821Z,99.90
2018-07-10T06:27:01.590Z,99.90
2018-07-10T06:29:40.057Z,99.90
2018-07-10T06:32:08.865Z,99.90
2018-07-10T06:34:38.825Z,99.90
2018-07-10T06:37:10.873Z,99.90
2018-07-10T06:39:40.173Z,99.90
2018-07-10T06:42:11.909Z,99.90
2018-07-10T06:44:40.540Z,99.90
2018-07-10T06:47:26.704Z,99.90
2018-07-10T06:49:55.314Z,99.90
2018-07-10T06:52:23.970Z,99.90
2018-07-10T06:55:10.718Z,99.90
2018-07-10T06:57:46.371Z,99.90
2018-07-10T07:00:15.124Z,99.90
2018-07-10T07:02:43.847Z,99.90
2018-07-10T07:05:12.541Z,99.90
2018-07-10T07:07:41.814Z,99.90
2018-07-10T07:10:11.645Z,99.90
2018-07-10T07:12:41.648Z,99.90
2018-07-10T07:15:12.235Z,99.90
2018-07-10T07:17:42.405Z,99.90
2018-07-10T07:20:10.992Z,99.90
2018-07-10T07:22:39.573Z,99.90
2018-07-10T07:25:08.375Z,99.90
2018-07-10T07:27:37.002Z,99.90
2018-07-10T07:30:05.520Z,99.90
2018-07-10T07:32:34.020Z,99.90
2018-07-10T07:35:02.608Z,99.90
2018-07-10T07:37:33.249Z,99.90
2018-07-10T07:40:01.888Z,99.90
2018-07-10T07:42:30.464Z,99.90
2018-07-10T07:44:58.964Z,99.90
2018-07-10T07:49:58.370Z,99.90
2018-07-10T07:54:57.984Z,99.90
2018-07-10T07:57:27.069Z,99.90
2018-07-10T07:59:56.131Z,99.90
2018-07-10T08:02:25.177Z,99.90
2018-07-10T08:04:54.245Z,99.90
2018-07-10T08:07:24.018Z,99.90
2018-07-10T08:09:54.421Z,99.90
2018-07-10T08:14:52.846Z,99.90
2018-07-10T08:17:24.011Z,99.90
2018-07-10T08:19:54.130Z,99.90
2018-07-10T08:22:23.503Z,99.90
2018-07-10T08:24:52.121Z,99.90
2018-07-10T08:27:21.127Z,99.90
2018-07-10T08:29:49.702Z,99.90
2018-07-10T08:32:18.329Z,99.90
2018-07-10T08:34:47.318Z,99.90
2018-07-10T08:37:15.833Z,99.90
2018-07-10T08:39:44.398Z,99.90
2018-07-10T08:42:14.554Z,99.90
2018-07-10T08:44:43.264Z,99.90
2018-07-10T08:47:11.904Z,99.90
2018-07-10T08:49:41.593Z,99.90
2018-07-10T08:52:12.149Z,99.90
2018-07-10T08:54:40.933Z,99.90
2018-07-10T08:57:09.449Z,99.90
2018-07-10T08:59:39.614Z,99.90
2018-07-10T09:02:08.152Z,99.90
2018-07-10T09:04:36.737Z,99.90
2018-07-10T09:07:06.064Z,99.90
2018-07-10T09:09:34.620Z,99.90
2018-07-10T09:12:03.283Z,99.90
2018-07-10T09:14:32.074Z,99.90
2018-07-10T09:17:00.853Z,99.90
2018-07-10T09:19:30.938Z,99.90
2018-07-10T09:24:38.082Z,99.90
2018-07-10T09:27:08.965Z,99.90
2018-07-10T09:29:41.266Z,99.90
2018-07-10T09:32:10.149Z,99.90
2018-07-10T09:34:38.684Z,99.90
2018-07-10T09:37:12.804Z,99.90
2018-07-10T09:39:42.177Z,99.90
2018-07-10T09:42:10.827Z,99.90
2018-07-10T09:44:39.589Z,99.90
2018-07-10T09:47:08.203Z,99.90
2018-07-10T09:49:36.858Z,99.90
2018-07-10T09:54:34.006Z,99.90
2018-07-10T09:57:02.821Z,99.90
2018-07-10T09:59:31.527Z,99.90
2018-07-10T10:02:05.456Z,99.80
2018-07-10T10:04:35.075Z,99.90
2018-07-10T10:07:03.672Z,99.90
2018-07-10T10:09:32.311Z,99.40
2018-07-10T10:12:02.106Z,99.70
2018-07-10T10:16:58.765Z,99.30
2018-07-10T10:19:28.109Z,99.50
2018-07-10T10:21:56.613Z,99.00
2018-07-10T10:24:25.149Z,98.40
2018-07-10T10:26:53.748Z,98.30
2018-07-10T10:29:22.702Z,98.30
2018-07-10T10:34:19.426Z,97.90
2018-07-10T10:36:48.028Z,97.60
2018-07-10T10:39:17.553Z,96.80
2018-07-10T10:44:16.151Z,97.10
2018-07-10T10:49:13.756Z,95.40
2018-07-10T10:51:42.733Z,96.10
2018-07-10T10:54:11.309Z,96.20
2018-07-10T10:59:08.109Z,96.40
2018-07-10T11:01:36.834Z,95.70
2018-07-10T11:04:05.754Z,95.60
2018-07-10T11:06:34.214Z,95.50
2018-07-10T11:09:02.918Z,95.80
2018-07-10T11:11:32.074Z,96.50
2018-07-10T11:14:02.836Z,96.50
2018-07-10T11:19:08.248Z,96.30
2018-07-10T11:21:43.138Z,96.50
2018-07-10T11:24:13.856Z,96.10
2018-07-10T11:26:45.131Z,95.90
2018-07-10T11:29:14.799Z,95.40
2018-07-10T11:31:43.431Z,94.70
2018-07-10T11:34:12.016Z,93.60
2018-07-10T11:39:10.730Z,93.40
2018-07-10T11:41:43.794Z,92.50
2018-07-10T11:44:12.400Z,91.60
2018-07-10T11:46:41.147Z,92.10
2018-07-10T11:51:38.262Z,90.70
2018-07-10T11:54:06.826Z,88.40
2018-07-10T11:56:35.751Z,86.80
2018-07-10T11:59:04.916Z,85.60
2018-07-10T12:01:35.322Z,83.50
2018-07-10T12:04:04.246Z,84.80
2018-07-10T12:06:42.662Z,84.90
2018-07-10T12:09:11.188Z,83.40
2018-07-10T12:11:40.179Z,86.10
2018-07-10T12:14:09.078Z,83.20
2018-07-10T12:16:37.748Z,79.70
2018-07-10T12:19:06.301Z,80.00
2018-07-10T12:21:35.346Z,78.80
2018-07-10T12:24:04.714Z,78.00
2018-07-10T12:26:33.671Z,76.70
2018-07-10T12:29:02.567Z,77.70
2018-07-10T12:31:31.126Z,76.40
2018-07-10T12:33:59.773Z,78.10
2018-07-10T12:36:28.556Z,78.80
2018-07-10T12:38:57.080Z,78.50
2018-07-10T12:41:26.518Z,76.30
2018-07-10T12:43:55.093Z,77.30
2018-07-10T12:46:23.667Z,74.40
2018-07-10T12:48:52.872Z,73.80
2018-07-10T12:51:21.745Z,74.20
2018-07-10T12:53:50.393Z,72.80
2018-07-10T12:56:19.143Z,72.40
2018-07-10T12:58:48.125Z,74.20
2018-07-10T13:01:17.643Z,75.30
2018-07-10T13:03:47.586Z,75.90
2018-07-10T13:06:16.531Z,75.70
2018-07-10T13:08:45.340Z,77.00
2018-07-10T13:11:13.973Z,76.60
2018-07-10T13:13:42.634Z,77.50
2018-07-10T13:16:11.221Z,77.40
2018-07-10T13:18:40.995Z,76.80
2018-07-10T13:21:10.116Z,78.90
2018-07-10T13:23:38.869Z,78.20
2018-07-10T13:26:07.558Z,77.30
2018-07-10T13:28:36.221Z,76.80
2018-07-10T13:31:04.804Z,77.30
2018-07-10T13:36:01.527Z,75.60
2018-07-10T13:38:30.048Z,76.50
2018-07-10T13:41:00.881Z,76.10
2018-07-10T13:43:29.410Z,75.10
2018-07-10T13:45:58.008Z,75.20
2018-07-10T13:48:26.693Z,75.70
2018-07-10T13:50:55.796Z,72.80
2018-07-10T13:53:24.948Z,73.50
2018-07-10T13:55:53.579Z,73.20
2018-07-10T13:58:26.919Z,72.80
2018-07-10T14:01:00.378Z,73.90
2018-07-10T14:03:29.055Z,73.30
2018-07-10T14:05:57.739Z,74.00
2018-07-10T14:08:26.599Z,72.50
2018-07-10T14:10:55.517Z,75.00
2018-07-10T14:13:24.400Z,71.80
2018-07-10T14:15:52.988Z,72.90
2018-07-10T14:18:21.700Z,71.90
2018-07-10T14:20:56.027Z,72.30
2018-07-10T14:23:24.832Z,70.10
2018-07-10T14:25:53.414Z,69.60
2018-07-10T14:28:22.134Z,72.00
2018-07-10T14:30:50.965Z,71.90
2018-07-10T14:33:20.302Z,71.60
2018-07-10T14:35:48.943Z,72.20
2018-07-10T14:38:20.501Z,69.50
2018-07-10T14:40:49.836Z,70.00
2018-07-10T14:43:21.933Z,71.50
2018-07-10T14:45:52.149Z,71.60
2018-07-10T14:48:21.079Z,70.80
2018-07-10T14:53:20.443Z,70.30
2018-07-10T14:55:49.236Z,71.50
2018-07-10T14:58:17.849Z,70.00
2018-07-10T15:00:46.491Z,69.30
2018-07-10T15:03:15.125Z,70.60
2018-07-10T15:05:43.681Z,69.10
2018-07-10T15:08:13.312Z,69.10
2018-07-10T15:10:41.970Z,69.20
2018-07-10T15:13:10.518Z,68.70
2018-07-10T15:15:39.673Z,69.50
2018-07-10T15:18:15.129Z,70.00
2018-07-10T15:20:44.079Z,67.90
2018-07-10T15:23:12.744Z,68.50
2018-07-10T15:33:06.243Z,69.30
2018-07-10T15:38:03.197Z,69.70
2018-07-10T15:45:28.241Z,70.00
2018-07-10T15:47:58.176Z,70.20
2018-07-10T15:50:27.069Z,69.80
2018-07-10T15:52:55.581Z,70.00
2018-07-10T15:55:24.414Z,70.60
2018-07-10T15:57:53.070Z,70.80
2018-07-10T16:00:21.656Z,70.90
2018-07-10T16:02:50.267Z,71.90
2018-07-10T16:07:47.346Z,72.10
2018-07-10T16:10:16.261Z,72.20
2018-07-10T16:12:46.141Z,72.50
2018-07-10T16:15:15.146Z,73.40
2018-07-10T16:17:43.733Z,74.40
2018-07-10T16:20:12.393Z,73.90
2018-07-10T16:22:42.343Z,74.50
2018-07-10T16:25:16.616Z,74.40
2018-07-10T16:27:46.524Z,74.70
2018-07-10T16:30:19.847Z,74.60
2018-07-10T16:35:17.021Z,75.60
2018-07-10T16:37:45.921Z,75.30
2018-07-10T16:40:15.608Z,75.40
2018-07-10T16:42:48.195Z,75.50
2018-07-10T16:45:31.902Z,75.20
2018-07-10T16:48:22.393Z,74.80
2018-07-10T16:51:27.357Z,75.50
2018-07-10T16:54:00.038Z,75.70
2018-07-10T16:56:29.739Z,74.10
2018-07-10T16:58:59.180Z,74.50
2018-07-10T17:01:29.408Z,75.70
2018-07-10T17:04:01.367Z,77.10
2018-07-10T17:06:29.965Z,77.00
2018-07-10T17:08:58.808Z,76.40
2018-07-10T17:11:27.576Z,76.20
2018-07-10T17:16:30.495Z,76.60
2018-07-10T17:18:59.177Z,76.70
2018-07-10T17:21:28.663Z,76.30
2018-07-10T17:24:00.648Z,77.20
2018-07-10T17:26:29.426Z,77.70
2018-07-10T17:28:58.318Z,77.80
2018-07-10T17:31:26.906Z,78.40
2018-07-10T17:33:55.542Z,78.70
2018-07-10T17:36:24.240Z,79.60
2018-07-10T17:38:52.906Z,79.60
2018-07-10T17:41:21.590Z,79.40
2018-07-10T17:43:50.218Z,79.60
2018-07-10T17:46:20.051Z,79.90
2018-07-10T17:48:48.934Z,80.10
2018-07-10T17:51:17.640Z,80.40
2018-07-10T17:53:46.399Z,80.60
2018-07-10T17:56:15.464Z,81.00
2018-07-10T17:58:44.213Z,81.40
2018-07-10T18:01:12.883Z,81.30
2018-07-10T18:03:41.494Z,81.90
2018-07-10T18:06:10.604Z,81.70
2018-07-10T18:08:39.223Z,82.20
2018-07-10T18:11:08.070Z,82.30
2018-07-10T18:13:36.684Z,82.10
2018-07-10T18:16:05.639Z,82.80
2018-07-10T18:18:34.646Z,83.00
2018-07-10T18:21:03.222Z,82.40
2018-07-10T18:23:31.844Z,82.20
2018-07-10T18:26:00.473Z,82.70
2018-07-10T18:28:29.060Z,82.80
2018-07-10T18:30:57.828Z,82.90
2018-07-10T18:33:26.491Z,83.40
2018-07-10T18:35:56.225Z,83.50
2018-07-10T18:38:24.901Z,83.30
2018-07-10T18:43:22.589Z,84.10
2018-07-10T18:45:51.255Z,83.90
2018-07-10T18:48:24.878Z,84.10
2018-07-10T18:53:21.704Z,84.50
2018-07-10T18:55:51.627Z,84.90
2018-07-10T18:58:28.344Z,84.60
2018-07-10T19:01:05.825Z,85.00
2018-07-10T19:03:35.893Z,85.50
2018-07-10T19:06:09.971Z,85.70
2018-07-10T19:08:40.368Z,85.90
2018-07-10T19:11:09.678Z,86.40
2018-07-10T19:13:38.307Z,87.30
2018-07-10T19:16:06.954Z,87.30
2018-07-10T19:18:36.087Z,87.30
2018-07-10T19:21:26.521Z,87.30
2018-07-10T19:23:57.915Z,87.80
2018-07-10T19:26:28.319Z,88.00
2018-07-10T19:29:13.712Z,88.30
2018-07-10T19:31:42.588Z,88.60
2018-07-10T19:34:12.103Z,88.70
2018-07-10T19:36:40.902Z,89.20
2018-07-10T19:39:09.669Z,90.00
2018-07-10T19:41:38.323Z,89.80
2018-07-10T19:44:06.913Z,90.10
2018-07-10T19:49:06.069Z,90.50
2018-07-10T19:51:34.651Z,91.10
2018-07-10T19:54:14.771Z,91.20
2018-07-10T19:56:43.475Z,91.40
2018-07-10T19:59:14.338Z,91.50
2018-07-10T20:02:01.705Z,91.70
2018-07-10T20:04:58.033Z,92.60
2018-07-10T20:07:30.291Z,92.60
2018-07-10T20:10:12.655Z,92.70
2018-07-10T20:12:45.446Z,92.70
2018-07-10T20:16:22.987Z,92.90
2018-07-10T20:21:48.251Z,94.00
2018-07-10T20:24:20.008Z,93.40
2018-07-10T20:27:01.526Z,93.70
2018-07-10T20:29:47.010Z,93.60
2018-07-10T20:32:21.833Z,93.60
2018-07-10T20:35:00.280Z,93.50
2018-07-10T20:37:30.741Z,93.90
2018-07-10T20:39:59.941Z,94.30
2018-07-10T20:42:35.085Z,94.90
2018-07-10T20:47:53.838Z,95.70
2018-07-10T20:50:32.039Z,95.80
2018-07-10T20:53:34.384Z,96.20
2018-07-10T20:56:18.650Z,96.10
2018-07-10T20:58:52.184Z,96.30
2018-07-10T21:01:29.869Z,96.30
2018-07-10T21:04:06.002Z,96.10
2018-07-10T21:06:47.438Z,96.30
2018-07-10T21:09:17.948Z,96.40
2018-07-10T21:12:09.176Z,96.80
2018-07-10T21:14:51.694Z,97.20
2018-07-10T21:17:24.814Z,96.90
2018-07-10T21:20:01.862Z,96.60
2018-07-10T21:23:12.709Z,96.60
2018-07-10T21:25:56.680Z,96.90
2018-07-10T21:28:40.070Z,99.80
2018-07-10T21:31:15.585Z,99.90
2018-07-10T21:33:51.127Z,99.90
2018-07-10T21:36:23.406Z,99.90
2018-07-10T21:39:03.244Z,99.90
2018-07-10T21:41:43.608Z,99.90
2018-07-10T21:46:27.616Z,99.90
2018-07-10T21:49:06.338Z,99.90
2018-07-10T21:51:35.337Z,99.90
2018-07-10T21:54:04.004Z,99.90
2018-07-10T21:56:33.410Z,99.90
2018-07-10T21:59:01.986Z,99.90
2018-07-10T22:01:44.146Z,99.90
2018-07-10T22:04:17.656Z,99.90
2018-07-10T22:06:48.730Z,99.90
2018-07-10T22:09:17.943Z,99.90
2018-07-10T22:11:47.066Z,99.90
2018-07-10T22:14:16.786Z,99.90
2018-07-10T22:16:45.328Z,99.90
2018-07-10T22:19:14.686Z,99.90
2018-07-10T22:24:11.805Z,99.90
2018-07-10T22:26:40.481Z,99.90
2018-07-10T22:29:09.426Z,99.90
2018-07-10T22:31:43.443Z,99.90
2018-07-10T22:34:11.938Z,99.90
2018-07-10T22:39:08.814Z,99.90
2018-07-10T22:41:38.893Z,99.90
2018-07-10T22:44:07.442Z,99.90
2018-07-10T22:46:36.944Z,99.90
2018-07-10T22:49:09.317Z,99.90
2018-07-10T22:51:37.765Z,99.90
2018-07-10T22:54:07.000Z,99.90
2018-07-10T22:56:35.509Z,99.90
2018-07-10T22:59:04.306Z,99.90
2018-07-10T23:01:35.420Z,99.90
2018-07-10T23:04:03.946Z,99.90
2018-07-10T23:09:01.352Z,99.90
2018-07-10T23:11:29.959Z,99.90
2018-07-10T23:13:58.470Z,99.90
2018-07-10T23:16:27.061Z,99.90
2018-07-10T23:21:23.883Z,99.90
2018-07-10T23:23:53.326Z,99.90
2018-07-10T23:26:21.998Z,99.90
2018-07-10T23:28:52.653Z,99.90
2018-07-10T23:31:23.310Z,99.90
2018-07-10T23:34:25.538Z,99.90
2018-07-10T23:36:59.083Z,99.90
2018-07-10T23:39:33.417Z,99.90
2018-07-10T23:42:10.702Z,99.90
2018-07-10T23:44:47.141Z,99.90
2018-07-10T23:47:23.761Z,99.90
2018-07-10T23:50:28.288Z,99.90
2018-07-10T23:54:00.592Z,99.90
2018-07-10T23:56:29.169Z,99.90
2018-07-10T23:58:57.826Z,99.90
